createdAt,value
2017-07-20T00:02:07.955Z,94.89
2017-07-20T00:04:40.226Z,94.87
2017-07-20T00:07:12.554Z,95.17
2017-07-20T00:09:44.882Z,94.97
2017-07-20T00:12:17.086Z,94.98
2017-07-20T00:14:49.365Z,94.86
2017-07-20T00:17:21.673Z,94.98
2017-07-20T00:19:54.050Z,94.93
2017-07-20T00:22:26.477Z,94.93
2017-07-20T00:24:58.678Z,94.92
2017-07-20T00:27:31.005Z,94.89
2017-07-20T00:30:03.421Z,94.80
2017-07-20T00:32:35.749Z,94.77
2017-07-20T00:35:08.158Z,94.78
2017-07-20T00:37:40.402Z,95.10
2017-07-20T00:40:12.870Z,95.10
2017-07-20T00:42:45.129Z,95.21
2017-07-20T00:45:17.572Z,95.32
2017-07-20T00:47:50.088Z,95.39
2017-07-20T00:50:22.217Z,95.46
2017-07-20T00:52:54.754Z,95.46
2017-07-20T00:55:27.107Z,95.41
2017-07-20T00:57:59.662Z,94.99
2017-07-20T01:00:31.941Z,94.90
2017-07-20T01:03:04.327Z,94.43
2017-07-20T01:05:36.762Z,94.16
2017-07-20T01:08:09.237Z,94.23
2017-07-20T01:10:41.618Z,94.10
2017-07-20T01:13:14.042Z,94.24
2017-07-20T01:15:46.445Z,94.05
2017-07-20T01:18:18.981Z,94.05
2017-07-20T01:20:52.403Z,94.24
2017-07-20T01:23:24.836Z,94.11
2017-07-20T01:25:57.185Z,94.00
2017-07-20T01:28:29.470Z,93.86
2017-07-20T01:31:01.866Z,93.83
2017-07-20T01:33:34.151Z,93.53
2017-07-20T01:36:06.570Z,93.64
2017-07-20T01:38:38.963Z,93.46
2017-07-20T01:41:11.249Z,93.45
2017-07-20T01:43:43.502Z,93.14
2017-07-20T01:46:15.962Z,93.22
2017-07-20T01:48:48.116Z,93.68
2017-07-20T01:51:20.526Z,93.79
2017-07-20T01:53:52.813Z,93.62
2017-07-20T01:56:25.594Z,93.54
2017-07-20T01:58:58.002Z,93.32
2017-07-20T02:01:30.097Z,93.30
2017-07-20T02:04:02.369Z,93.23
2017-07-20T02:06:34.646Z,93.23
2017-07-20T02:09:06.924Z,92.96
2017-07-20T02:11:39.198Z,93.07
2017-07-20T02:14:11.558Z,93.30
2017-07-20T02:16:43.721Z,93.56
2017-07-20T02:19:16.123Z,93.37
2017-07-20T02:21:48.645Z,93.28
2017-07-20T02:24:20.722Z,93.30
2017-07-20T02:26:53.109Z,93.03
2017-07-20T02:29:25.461Z,93.23
2017-07-20T02:31:57.757Z,93.62
2017-07-20T02:34:30.137Z,93.59
2017-07-20T02:37:02.517Z,93.73
2017-07-20T02:39:34.748Z,93.78
2017-07-20T02:42:07.051Z,93.91
2017-07-20T02:44:39.390Z,94.35
2017-07-20T02:47:11.795Z,94.29
2017-07-20T02:49:44.160Z,94.18
2017-07-20T02:52:16.650Z,93.99
2017-07-20T02:54:49.107Z,93.91
2017-07-20T02:57:21.362Z,93.75
2017-07-20T02:59:54.150Z,93.48
2017-07-20T03:02:26.121Z,93.61
2017-07-20T03:04:58.521Z,93.97
2017-07-20T03:07:30.846Z,94.16
2017-07-20T03:10:03.573Z,93.86
2017-07-20T03:12:35.496Z,94.21
2017-07-20T03:15:07.818Z,94.33
2017-07-20T03:17:40.311Z,94.21
2017-07-20T03:20:12.737Z,94.75
2017-07-20T03:22:45.077Z,95.39
2017-07-20T03:25:17.520Z,95.74
2017-07-20T03:27:49.920Z,95.93
2017-07-20T03:30:22.134Z,95.98
2017-07-20T03:32:54.522Z,95.86
2017-07-20T03:35:26.878Z,95.76
2017-07-20T03:37:59.285Z,95.49
2017-07-20T03:40:31.582Z,95.79
2017-07-20T03:43:04.037Z,95.64
2017-07-20T03:45:36.285Z,95.27
2017-07-20T03:48:08.633Z,95.15
2017-07-20T03:50:40.797Z,95.42
2017-07-20T03:53:13.207Z,95.79
2017-07-20T03:55:45.592Z,95.76
2017-07-20T03:58:18.032Z,95.62
2017-07-20T04:00:50.346Z,95.38
2017-07-20T04:03:22.864Z,95.37
2017-07-20T04:05:55.255Z,95.00
2017-07-20T04:08:27.614Z,94.83
2017-07-20T04:10:59.963Z,94.80
2017-07-20T04:13:32.354Z,94.85
2017-07-20T04:16:04.837Z,94.67
2017-07-20T04:18:37.272Z,94.59
2017-07-20T04:21:09.532Z,94.27
2017-07-20T04:23:41.942Z,94.09
2017-07-20T04:26:14.438Z,94.16
2017-07-20T04:28:46.933Z,93.97
2017-07-20T04:31:19.297Z,93.79
2017-07-20T04:33:51.713Z,93.95
2017-07-20T04:36:24.057Z,93.84
2017-07-20T04:38:56.516Z,93.46
2017-07-20T04:41:28.968Z,93.41
2017-07-20T04:44:01.466Z,94.60
2017-07-20T04:46:33.917Z,95.00
2017-07-20T04:49:06.402Z,95.19
2017-07-20T04:51:38.825Z,95.18
2017-07-20T04:54:11.208Z,95.57
2017-07-20T04:56:43.478Z,95.71
2017-07-20T04:59:15.827Z,95.67
2017-07-20T05:01:48.284Z,95.47
2017-07-20T05:04:20.577Z,95.33
2017-07-20T05:06:52.941Z,95.27
2017-07-20T05:09:25.316Z,95.40
2017-07-20T05:11:57.746Z,95.41
2017-07-20T05:14:30.037Z,95.24
2017-07-20T05:17:02.349Z,95.30
2017-07-20T05:19:34.664Z,95.17
2017-07-20T05:22:07.196Z,95.21
2017-07-20T05:24:39.505Z,95.08
2017-07-20T05:27:11.938Z,94.68
2017-07-20T05:29:44.385Z,94.37
2017-07-20T05:32:16.794Z,94.32
2017-07-20T05:34:49.203Z,94.11
2017-07-20T05:37:21.802Z,94.20
2017-07-20T05:39:54.047Z,94.06
2017-07-20T05:42:26.398Z,93.83
2017-07-20T05:44:58.777Z,93.79
2017-07-20T05:47:31.168Z,93.47
2017-07-20T05:50:03.670Z,93.50
2017-07-20T05:52:36.150Z,93.11
2017-07-20T05:55:08.939Z,93.48
2017-07-20T05:57:41.138Z,93.39
2017-07-20T06:00:13.685Z,93.49
2017-07-20T06:02:46.118Z,93.61
2017-07-20T06:05:18.542Z,93.09
2017-07-20T06:07:50.949Z,93.47
2017-07-20T06:10:23.426Z,93.12
2017-07-20T06:12:55.846Z,93.69
2017-07-20T06:15:28.238Z,93.50
2017-07-20T06:18:00.650Z,93.57
2017-07-20T06:20:33.294Z,94.28
2017-07-20T06:23:05.549Z,94.38
2017-07-20T06:25:37.906Z,94.32
2017-07-20T06:28:10.331Z,94.19
2017-07-20T06:30:42.706Z,93.83
2017-07-20T06:33:15.200Z,93.69
2017-07-20T06:35:47.616Z,93.59
2017-07-20T06:38:20.015Z,93.16
2017-07-20T06:40:52.777Z,93.00
2017-07-20T06:43:24.797Z,92.77
2017-07-20T06:45:57.217Z,92.10
2017-07-20T06:48:29.856Z,91.55
2017-07-20T06:51:02.322Z,91.37
2017-07-20T06:53:34.738Z,90.98
2017-07-20T06:56:07.058Z,90.86
2017-07-20T06:58:39.633Z,90.57
2017-07-20T07:01:11.997Z,90.20
2017-07-20T07:03:44.372Z,89.77
2017-07-20T07:06:16.770Z,89.42
2017-07-20T07:08:49.121Z,89.48
2017-07-20T07:11:21.650Z,89.72
2017-07-20T07:13:54.674Z,89.34
2017-07-20T07:16:27.458Z,89.62
2017-07-20T07:18:59.801Z,90.28
2017-07-20T07:21:32.197Z,90.38
2017-07-20T07:24:04.713Z,90.71
2017-07-20T07:26:37.041Z,90.35
2017-07-20T07:29:09.430Z,90.26
2017-07-20T07:31:41.757Z,90.24
2017-07-20T07:34:14.102Z,90.25
2017-07-20T07:36:46.458Z,90.52
2017-07-20T07:39:19.125Z,90.42
2017-07-20T07:41:51.553Z,90.72
2017-07-20T07:44:23.964Z,90.72
2017-07-20T07:46:56.445Z,91.13
2017-07-20T07:49:28.737Z,91.27
2017-07-20T07:52:01.169Z,91.40
2017-07-20T07:54:33.665Z,91.36
2017-07-20T07:57:06.017Z,91.18
2017-07-20T07:59:38.705Z,90.83
2017-07-20T08:02:10.775Z,90.89
2017-07-20T08:04:44.284Z,90.76
2017-07-20T08:07:16.851Z,89.87
2017-07-20T08:09:49.150Z,89.01
2017-07-20T08:12:21.693Z,87.36
2017-07-20T08:14:54.298Z,85.59
2017-07-20T08:17:26.653Z,85.73
2017-07-20T08:19:59.086Z,84.39
2017-07-20T08:22:31.341Z,85.41
2017-07-20T08:25:03.798Z,84.37
2017-07-20T08:27:36.574Z,83.87
2017-07-20T08:30:09.153Z,83.91
2017-07-20T08:32:41.621Z,84.36
2017-07-20T08:35:14.017Z,83.81
2017-07-20T08:37:46.373Z,82.97
2017-07-20T08:40:18.873Z,83.18
2017-07-20T08:42:51.221Z,80.85
2017-07-20T08:45:23.635Z,81.40
2017-07-20T08:47:56.154Z,80.20
2017-07-20T08:50:28.798Z,80.74
2017-07-20T08:53:01.174Z,81.39
2017-07-20T08:55:33.635Z,81.57
2017-07-20T08:58:06.114Z,81.89
2017-07-20T09:00:38.589Z,81.99
2017-07-20T09:03:11.241Z,81.04
2017-07-20T09:05:43.503Z,81.05
2017-07-20T09:08:16.061Z,80.68
2017-07-20T09:10:48.425Z,81.52
2017-07-20T09:13:20.721Z,81.86
2017-07-20T09:15:53.193Z,80.89
2017-07-20T09:18:25.669Z,80.53
2017-07-20T09:20:58.088Z,80.23
2017-07-20T09:23:30.500Z,80.55
2017-07-20T09:26:02.854Z,80.04
2017-07-20T09:28:35.295Z,78.91
2017-07-20T09:31:07.735Z,78.25
2017-07-20T09:33:40.301Z,77.43
2017-07-20T09:36:12.534Z,74.33
2017-07-20T09:38:45.022Z,75.26
2017-07-20T09:41:17.457Z,72.65
2017-07-20T09:43:49.824Z,73.66
2017-07-20T09:46:22.287Z,73.40
2017-07-20T09:48:54.841Z,73.08
2017-07-20T09:51:27.190Z,74.18
2017-07-20T09:53:59.613Z,75.60
2017-07-20T09:56:32.202Z,76.41
2017-07-20T09:59:04.753Z,76.77
2017-07-20T10:01:37.130Z,76.71
2017-07-20T10:04:09.556Z,77.67
2017-07-20T10:06:42.190Z,79.20
2017-07-20T10:09:14.325Z,80.14
2017-07-20T10:11:46.760Z,81.24
2017-07-20T10:14:19.125Z,81.53
2017-07-20T10:16:51.429Z,82.45
2017-07-20T10:19:23.790Z,82.74
2017-07-20T10:21:56.061Z,82.31
2017-07-20T10:24:28.398Z,81.74
2017-07-20T10:27:00.805Z,81.62
2017-07-20T10:29:33.260Z,80.79
2017-07-20T10:32:05.702Z,79.58
2017-07-20T10:34:37.911Z,79.47
2017-07-20T10:37:10.309Z,80.39
2017-07-20T10:39:42.684Z,79.29
2017-07-20T10:42:15.257Z,79.36
2017-07-20T10:44:47.801Z,80.12
2017-07-20T10:47:20.368Z,79.94
2017-07-20T10:49:52.678Z,80.12
2017-07-20T10:52:25.222Z,79.36
2017-07-20T10:54:57.590Z,79.73
2017-07-20T10:57:30.664Z,79.85
2017-07-20T11:00:03.708Z,79.57
2017-07-20T11:02:35.751Z,79.46
2017-07-20T11:05:08.125Z,79.06
2017-07-20T11:07:40.597Z,78.68
2017-07-20T11:10:12.966Z,77.10
2017-07-20T11:12:45.300Z,77.35
2017-07-20T11:15:17.706Z,75.94
2017-07-20T11:17:50.173Z,75.37
2017-07-20T11:20:22.434Z,72.88
2017-07-20T11:22:54.854Z,73.15
2017-07-20T11:25:27.277Z,70.87
2017-07-20T11:27:59.537Z,71.80
2017-07-20T11:30:31.958Z,71.43
2017-07-20T11:33:04.243Z,71.83
2017-07-20T11:35:36.672Z,72.01
2017-07-20T11:38:09.482Z,72.41
2017-07-20T11:40:41.632Z,71.74
2017-07-20T11:43:13.861Z,71.80
2017-07-20T11:45:46.214Z,71.01
2017-07-20T11:48:18.688Z,69.87
2017-07-20T11:50:50.838Z,69.72
2017-07-20T11:53:23.343Z,68.83
2017-07-20T11:55:55.798Z,68.46
2017-07-20T11:58:28.153Z,67.59
2017-07-20T12:01:00.594Z,67.90
2017-07-20T12:03:32.968Z,66.35
2017-07-20T12:06:05.585Z,65.41
2017-07-20T12:08:37.616Z,64.70
2017-07-20T12:11:09.928Z,63.58
2017-07-20T12:13:42.334Z,65.59
2017-07-20T12:16:14.638Z,62.88
2017-07-20T12:18:47.049Z,63.68
2017-07-20T12:21:19.344Z,62.45
2017-07-20T12:23:51.854Z,60.99
2017-07-20T12:26:24.413Z,60.73
2017-07-20T12:28:56.367Z,61.87
2017-07-20T12:31:28.701Z,61.87
2017-07-20T12:34:01.089Z,62.26
2017-07-20T12:36:33.453Z,61.92
2017-07-20T12:39:05.841Z,63.39
2017-07-20T12:41:38.225Z,63.62
2017-07-20T12:44:10.598Z,62.96
2017-07-20T12:46:42.939Z,61.62
2017-07-20T12:49:15.347Z,61.20
2017-07-20T12:51:47.676Z,60.20
2017-07-20T12:54:20.104Z,59.55
2017-07-20T12:56:52.380Z,58.03
2017-07-20T12:59:24.813Z,55.97
2017-07-20T13:01:57.096Z,55.72
2017-07-20T13:04:29.493Z,56.77
2017-07-20T13:07:01.807Z,53.60
2017-07-20T13:09:34.308Z,51.00
2017-07-20T13:12:06.586Z,51.66
2017-07-20T13:14:39.082Z,52.01
2017-07-20T13:17:11.469Z,51.47
2017-07-20T13:19:44.205Z,51.60
2017-07-20T13:22:16.200Z,51.85
2017-07-20T13:24:48.583Z,51.27
2017-07-20T13:27:21.032Z,50.92
2017-07-20T13:29:53.446Z,51.95
2017-07-20T13:32:25.862Z,51.46
2017-07-20T13:34:58.377Z,51.26
2017-07-20T13:37:30.601Z,50.22
2017-07-20T13:40:02.861Z,49.50
2017-07-20T13:42:35.113Z,50.23
2017-07-20T13:45:07.450Z,52.68
2017-07-20T13:47:39.785Z,54.61
2017-07-20T13:50:12.209Z,56.26
2017-07-20T13:52:44.546Z,56.13
2017-07-20T13:55:16.926Z,53.75
2017-07-20T13:57:49.136Z,53.83
2017-07-20T14:00:21.594Z,52.66
2017-07-20T14:02:53.929Z,51.71
2017-07-20T14:05:26.413Z,48.94
2017-07-20T14:07:58.792Z,50.03
2017-07-20T14:10:31.164Z,49.98
2017-07-20T14:13:03.554Z,51.76
2017-07-20T14:15:35.864Z,52.60
2017-07-20T14:18:08.278Z,52.56
2017-07-20T14:20:40.830Z,52.52
2017-07-20T14:23:13.153Z,51.60
2017-07-20T14:25:45.524Z,50.74
2017-07-20T14:28:17.929Z,51.05
2017-07-20T14:30:50.294Z,51.04
2017-07-20T14:33:22.725Z,51.45
2017-07-20T14:35:55.158Z,50.06
2017-07-20T14:38:27.424Z,49.80
2017-07-20T14:40:59.868Z,50.69
2017-07-20T14:43:32.632Z,50.18
2017-07-20T14:46:04.818Z,50.46
2017-07-20T14:48:37.267Z,51.54
2017-07-20T14:51:09.689Z,51.33
2017-07-20T14:53:42.034Z,50.62
2017-07-20T14:56:14.473Z,49.28
2017-07-20T14:58:46.886Z,50.07
2017-07-20T15:01:19.376Z,50.58
2017-07-20T15:03:51.826Z,51.94
2017-07-20T15:06:24.414Z,53.45
2017-07-20T15:08:56.773Z,55.00
2017-07-20T15:11:29.078Z,54.25
2017-07-20T15:14:01.475Z,58.02
2017-07-20T15:16:33.725Z,64.50
2017-07-20T15:19:06.277Z,69.00
2017-07-20T15:21:38.492Z,71.05
2017-07-20T15:24:10.841Z,71.41
2017-07-20T15:26:43.223Z,74.48
2017-07-20T15:29:15.688Z,71.84
2017-07-20T15:31:56.812Z,73.44
2017-07-20T15:34:29.330Z,73.62
2017-07-20T15:37:01.594Z,72.62
2017-07-20T15:39:33.926Z,74.14
2017-07-20T15:42:06.463Z,71.54
2017-07-20T15:44:38.878Z,69.89
2017-07-20T15:47:11.488Z,67.42
2017-07-20T15:49:43.862Z,66.17
2017-07-20T15:52:15.981Z,66.35
2017-07-20T15:54:48.375Z,66.84
2017-07-20T15:57:20.842Z,66.09
2017-07-20T15:59:53.033Z,65.89
2017-07-20T16:02:25.474Z,66.14
2017-07-20T16:04:57.680Z,67.45
2017-07-20T16:07:30.112Z,66.66
2017-07-20T16:10:02.538Z,65.16
2017-07-20T16:12:34.928Z,65.61
2017-07-20T16:15:07.482Z,65.97
2017-07-20T16:17:39.892Z,64.50
2017-07-20T16:20:12.114Z,64.15
2017-07-20T16:22:44.550Z,64.95
2017-07-20T16:25:16.893Z,63.20
2017-07-20T16:27:49.389Z,61.24
2017-07-20T16:30:21.763Z,64.02
2017-07-20T16:32:54.054Z,63.55
2017-07-20T16:35:26.684Z,62.94
2017-07-20T16:37:59.897Z,63.23
2017-07-20T16:40:32.345Z,63.27
2017-07-20T16:43:05.821Z,62.49
2017-07-20T16:45:38.234Z,64.29
2017-07-20T16:48:10.632Z,61.88
2017-07-20T16:50:42.975Z,62.40
2017-07-20T16:53:15.487Z,61.70
2017-07-20T16:55:47.747Z,61.46
2017-07-20T16:58:20.100Z,62.35
2017-07-20T17:00:52.449Z,61.08
2017-07-20T17:03:24.978Z,59.95
2017-07-20T17:05:57.325Z,61.41
2017-07-20T17:08:29.814Z,61.73
2017-07-20T17:11:02.289Z,61.22
2017-07-20T17:13:34.722Z,62.06
2017-07-20T17:16:07.130Z,61.29
2017-07-20T17:18:39.649Z,61.49
2017-07-20T17:21:12.094Z,61.92
2017-07-20T17:23:44.596Z,61.36
2017-07-20T17:26:16.935Z,62.79
2017-07-20T17:28:49.238Z,62.26
2017-07-20T17:31:21.603Z,62.23
2017-07-20T17:33:54.145Z,62.42
2017-07-20T17:36:26.609Z,63.39
2017-07-20T17:38:58.936Z,63.71
2017-07-20T17:41:31.162Z,63.62
2017-07-20T17:44:03.566Z,63.25
2017-07-20T17:46:35.793Z,63.95
2017-07-20T17:49:08.218Z,63.45
2017-07-20T17:51:40.746Z,64.04
2017-07-20T17:54:13.058Z,63.36
2017-07-20T17:56:45.283Z,63.60
2017-07-20T17:59:17.746Z,62.66
2017-07-20T18:01:50.098Z,63.57
2017-07-20T18:04:22.589Z,63.44
2017-07-20T18:06:55.041Z,63.64
2017-07-20T18:09:27.392Z,63.49
2017-07-20T18:11:59.741Z,63.32
2017-07-20T18:14:33.128Z,63.07
2017-07-20T18:17:05.721Z,62.83
2017-07-20T18:19:38.217Z,62.85
2017-07-20T18:22:10.949Z,62.77
2017-07-20T18:24:43.169Z,63.39
2017-07-20T18:27:15.642Z,63.07
2017-07-20T18:29:47.950Z,64.16
2017-07-20T18:32:20.370Z,64.10
2017-07-20T18:34:52.730Z,64.10
2017-07-20T18:37:25.030Z,64.53
2017-07-20T18:39:57.514Z,64.83
2017-07-20T18:42:29.874Z,65.26
2017-07-20T18:45:02.405Z,64.73
2017-07-20T18:47:34.789Z,64.51
2017-07-20T18:50:07.215Z,64.91
2017-07-20T18:52:39.641Z,64.62
2017-07-20T18:55:12.070Z,65.06
2017-07-20T18:57:44.459Z,65.51
2017-07-20T19:00:17.376Z,65.94
2017-07-20T19:02:49.269Z,65.82
2017-07-20T19:05:21.638Z,65.92
2017-07-20T19:07:54.057Z,65.51
2017-07-20T19:10:26.577Z,66.21
2017-07-20T19:12:58.762Z,66.62
2017-07-20T19:15:31.182Z,67.18
2017-07-20T19:18:03.489Z,67.69
2017-07-20T19:20:35.914Z,68.21
2017-07-20T19:23:08.265Z,68.58
2017-07-20T19:25:40.646Z,68.99
2017-07-20T19:28:12.923Z,69.50
2017-07-20T19:30:45.309Z,69.87
2017-07-20T19:33:17.577Z,69.81
2017-07-20T19:35:49.973Z,70.36
2017-07-20T19:38:22.155Z,70.29
2017-07-20T19:40:55.062Z,70.00
2017-07-20T19:43:27.109Z,69.91
2017-07-20T19:45:59.570Z,70.16
2017-07-20T19:48:31.825Z,70.07
2017-07-20T19:51:04.181Z,69.95
2017-07-20T19:53:36.419Z,70.08
2017-07-20T19:56:08.817Z,70.02
2017-07-20T19:58:41.108Z,70.20
2017-07-20T20:01:13.448Z,70.12
2017-07-20T20:03:45.729Z,70.19
2017-07-20T20:06:18.204Z,70.21
2017-07-20T20:08:50.481Z,70.09
2017-07-20T20:11:22.878Z,70.17
2017-07-20T20:13:55.326Z,70.25
2017-07-20T20:16:27.644Z,71.18
2017-07-20T20:31:56.519Z,70.51
2017-07-20T20:34:28.581Z,71.54
2017-07-20T20:37:00.994Z,71.68
2017-07-20T20:39:33.312Z,72.05
2017-07-20T20:42:06.697Z,72.27
2017-07-20T20:44:39.605Z,71.92
2017-07-20T20:47:11.530Z,71.46
2017-07-20T20:49:44.037Z,70.19
2017-07-20T20:52:18.473Z,70.22
2017-07-20T20:54:51.089Z,69.32
2017-07-20T20:57:23.137Z,69.20
2017-07-20T20:59:55.481Z,69.49
2017-07-20T21:02:27.896Z,70.25
2017-07-20T21:05:00.288Z,71.04
2017-07-20T21:07:32.654Z,72.00
2017-07-20T21:10:05.052Z,71.69
2017-07-20T21:12:37.494Z,71.95
2017-07-20T21:15:10.024Z,71.39
2017-07-20T21:17:42.442Z,71.12
2017-07-20T21:20:14.833Z,71.27
2017-07-20T21:22:47.239Z,72.54
2017-07-20T21:25:19.621Z,73.72
2017-07-20T21:27:51.965Z,74.72
2017-07-20T21:30:24.450Z,75.09
2017-07-20T21:32:56.604Z,75.37
2017-07-20T21:35:28.969Z,75.95
2017-07-20T21:38:01.300Z,76.35
2017-07-20T21:40:33.746Z,76.34
2017-07-20T21:43:06.181Z,77.10
2017-07-20T21:45:38.866Z,77.64
2017-07-20T21:48:10.827Z,78.07
2017-07-20T21:50:43.257Z,78.39
2017-07-20T21:53:15.525Z,78.70
2017-07-20T21:55:47.974Z,78.91
2017-07-20T21:58:20.239Z,79.11
2017-07-20T22:00:53.114Z,79.08
2017-07-20T22:03:25.169Z,78.95
2017-07-20T22:05:57.549Z,79.04
2017-07-20T22:08:29.916Z,78.92
2017-07-20T22:11:02.489Z,79.29
2017-07-20T22:13:34.641Z,78.78
2017-07-20T22:16:07.174Z,78.93
2017-07-20T22:18:39.514Z,78.80
2017-07-20T22:21:11.918Z,78.86
2017-07-20T22:23:44.372Z,78.08
2017-07-20T22:26:16.853Z,77.83
2017-07-20T22:28:49.236Z,77.62
2017-07-20T22:31:21.649Z,77.48
2017-07-20T22:33:54.058Z,77.34
2017-07-20T22:36:26.452Z,77.13
2017-07-20T22:38:58.882Z,77.32
2017-07-20T22:41:31.289Z,77.79
2017-07-20T22:44:03.654Z,78.11
2017-07-20T22:46:36.092Z,77.91
2017-07-20T22:49:08.693Z,78.40
2017-07-20T22:51:41.085Z,78.47
2017-07-20T22:54:13.456Z,79.04
2017-07-20T22:56:45.768Z,79.62
2017-07-20T22:59:18.092Z,79.55
2017-07-20T23:01:50.437Z,79.73
2017-07-20T23:04:22.829Z,79.59
2017-07-20T23:06:55.265Z,79.68
2017-07-20T23:09:27.626Z,79.14
2017-07-20T23:12:00.021Z,79.10
2017-07-20T23:14:32.346Z,79.37
2017-07-20T23:17:04.830Z,79.02
2017-07-20T23:19:37.194Z,78.70
2017-07-20T23:22:09.600Z,78.57
2017-07-20T23:24:41.941Z,78.60
2017-07-20T23:27:14.409Z,78.75
2017-07-20T23:29:46.730Z,79.04
2017-07-20T23:32:19.237Z,79.24
2017-07-20T23:34:51.538Z,79.47
2017-07-20T23:37:23.925Z,79.37
2017-07-20T23:39:56.182Z,79.44
2017-07-20T23:42:29.569Z,79.62
2017-07-20T23:45:02.065Z,80.07
2017-07-20T23:47:34.470Z,79.72
2017-07-20T23:50:06.892Z,79.87
2017-07-20T23:52:39.360Z,80.44
2017-07-20T23:55:11.678Z,80.73
2017-07-20T23:57:43.937Z,80.77
